createdAt,value
2022-09-13T00:01:40.064Z,12.20
2022-09-13T00:04:08.827Z,12.20
2022-09-13T00:06:38.233Z,12.20
2022-09-13T00:09:07.333Z,12.10
2022-09-13T00:11:36.688Z,12.20
2022-09-13T00:14:04.278Z,12.20
2022-09-13T00:16:31.882Z,12.10
2022-09-13T00:18:59.633Z,12.10
2022-09-13T00:21:27.799Z,12.00
2022-09-13T00:23:55.257Z,12.00
2022-09-13T00:26:24.529Z,12.00
2022-09-13T00:28:52.985Z,12.00
2022-09-13T00:31:20.578Z,12.00
2022-09-13T00:33:51.785Z,12.00
2022-09-13T00:36:19.001Z,12.00
2022-09-13T00:38:46.275Z,12.00
2022-09-13T00:41:15.442Z,11.90
2022-09-13T00:43:50.496Z,11.90
2022-09-13T00:46:44.106Z,11.80
2022-09-13T00:49:22.979Z,11.80
2022-09-13T00:51:58.340Z,11.80
2022-09-13T00:54:29.577Z,11.90
2022-09-13T00:56:58.055Z,11.90
2022-09-13T00:59:33.356Z,11.90
2022-09-13T01:02:00.601Z,12.00
2022-09-13T01:04:28.752Z,12.00
2022-09-13T01:06:57.893Z,11.90
2022-09-13T01:09:25.101Z,11.90
2022-09-13T01:12:00.630Z,11.90
2022-09-13T01:14:27.933Z,11.80
2022-09-13T01:16:55.249Z,11.80
2022-09-13T01:19:22.486Z,11.80
2022-09-13T01:21:52.688Z,11.80
2022-09-13T01:24:47.918Z,11.90
2022-09-13T01:27:47.349Z,11.80
2022-09-13T01:30:22.323Z,11.80
2022-09-13T01:33:08.022Z,11.80
2022-09-13T01:35:47.645Z,11.70
2022-09-13T01:38:34.132Z,11.70
2022-09-13T01:41:25.569Z,11.70
2022-09-13T01:43:55.614Z,11.60
2022-09-13T01:46:29.069Z,11.60
2022-09-13T01:49:33.459Z,11.60
2022-09-13T01:52:06.146Z,11.60
2022-09-13T01:55:01.475Z,11.60
2022-09-13T01:57:33.737Z,11.60
2022-09-13T02:00:10.697Z,11.60
2022-09-13T02:02:53.875Z,11.70
2022-09-13T02:05:39.077Z,11.70
2022-09-13T02:08:16.355Z,11.70
2022-09-13T02:11:22.426Z,11.70
2022-09-13T02:14:10.942Z,11.70
2022-09-13T02:17:02.498Z,11.70
2022-09-13T02:19:36.416Z,11.60
2022-09-13T02:22:04.206Z,11.50
2022-09-13T02:24:33.742Z,11.50
2022-09-13T02:27:03.905Z,11.40
2022-09-13T02:29:31.277Z,11.40
2022-09-13T02:32:00.428Z,11.40
2022-09-13T02:34:54.943Z,11.40
2022-09-13T02:37:22.158Z,11.30
2022-09-13T02:40:05.619Z,11.30
2022-09-13T02:42:44.198Z,11.30
2022-09-13T02:45:12.266Z,11.20
2022-09-13T02:48:00.022Z,11.20
2022-09-13T02:50:51.906Z,11.10
2022-09-13T02:53:26.959Z,11.10
2022-09-13T02:56:13.195Z,11.00
2022-09-13T02:58:50.256Z,11.00
2022-09-13T03:01:17.499Z,11.00
2022-09-13T03:03:44.853Z,11.00
2022-09-13T03:06:12.061Z,11.00
2022-09-13T03:08:39.258Z,11.00
2022-09-13T03:11:24.505Z,10.90
2022-09-13T03:14:03.936Z,10.80
2022-09-13T03:16:43.737Z,10.90
2022-09-13T03:19:47.870Z,10.90
2022-09-13T03:22:17.852Z,10.80
2022-09-13T03:24:49.964Z,10.80
2022-09-13T03:27:51.562Z,10.80
2022-09-13T03:30:18.871Z,10.80
2022-09-13T03:32:51.989Z,10.80
2022-09-13T03:35:19.179Z,10.70
2022-09-13T03:38:20.868Z,10.70
2022-09-13T03:40:51.653Z,10.70
2022-09-13T03:43:30.534Z,10.70
2022-09-13T03:45:59.627Z,10.70
2022-09-13T03:48:27.822Z,10.70
2022-09-13T03:50:55.630Z,10.70
2022-09-13T03:53:27.234Z,10.80
2022-09-13T03:55:54.774Z,10.80
2022-09-13T03:58:22.144Z,10.80
2022-09-13T04:00:49.411Z,10.80
2022-09-13T04:03:16.746Z,10.70
2022-09-13T04:05:43.945Z,10.70
2022-09-13T04:08:11.170Z,10.70
2022-09-13T04:10:40.676Z,10.80
2022-09-13T04:13:07.876Z,10.80
2022-09-13T04:15:35.080Z,10.90
2022-09-13T04:18:02.253Z,10.90
2022-09-13T04:20:29.757Z,10.90
2022-09-13T04:22:57.574Z,11.00
2022-09-13T04:25:24.877Z,11.00
2022-09-13T04:27:55.655Z,11.00
2022-09-13T04:30:23.353Z,11.00
2022-09-13T04:32:50.645Z,11.00
2022-09-13T04:35:19.496Z,11.00
2022-09-13T04:37:46.784Z,11.00
2022-09-13T04:40:14.555Z,11.00
2022-09-13T04:42:43.662Z,11.00
2022-09-13T04:45:11.051Z,11.00
2022-09-13T04:47:38.256Z,11.10
2022-09-13T04:50:07.040Z,11.10
2022-09-13T04:52:34.230Z,11.10
2022-09-13T04:55:02.060Z,11.20
2022-09-13T04:57:29.296Z,11.20
2022-09-13T04:59:56.558Z,11.30
2022-09-13T05:02:23.869Z,11.40
2022-09-13T05:04:51.356Z,11.40
2022-09-13T05:07:18.537Z,11.30
2022-09-13T05:09:45.823Z,11.30
2022-09-13T05:12:13.211Z,11.30
2022-09-13T05:14:40.489Z,11.30
2022-09-13T05:17:07.701Z,11.40
2022-09-13T05:19:35.074Z,11.40
2022-09-13T05:22:02.797Z,11.50
2022-09-13T05:24:30.036Z,11.50
2022-09-13T05:26:57.305Z,11.60
2022-09-13T05:29:24.534Z,11.60
2022-09-13T05:31:51.779Z,11.70
2022-09-13T05:34:19.719Z,11.70
2022-09-13T05:36:51.640Z,11.80
2022-09-13T05:39:36.269Z,11.80
2022-09-13T05:42:09.430Z,11.80
2022-09-13T05:44:36.631Z,11.90
2022-09-13T05:47:03.915Z,11.90
2022-09-13T05:49:31.125Z,12.00
2022-09-13T05:51:58.378Z,11.90
2022-09-13T05:54:25.838Z,12.00
2022-09-13T05:56:57.318Z,12.00
2022-09-13T05:59:24.525Z,12.00
2022-09-13T06:01:51.746Z,12.00
2022-09-13T06:04:19.010Z,12.10
2022-09-13T06:06:46.235Z,12.10
2022-09-13T06:09:13.730Z,12.10
2022-09-13T06:11:41.108Z,12.20
2022-09-13T06:14:08.374Z,12.20
2022-09-13T06:16:36.785Z,12.30
2022-09-13T06:19:04.125Z,12.40
2022-09-13T06:21:31.321Z,12.50
2022-09-13T06:23:58.528Z,12.60
2022-09-13T06:26:27.281Z,12.70
2022-09-13T06:28:56.791Z,12.80
2022-09-13T06:31:25.631Z,13.00
2022-09-13T06:34:00.906Z,13.10
2022-09-13T06:36:29.651Z,13.20
2022-09-13T06:39:00.751Z,13.30
2022-09-13T06:41:30.255Z,13.30
2022-09-13T06:44:00.565Z,13.40
2022-09-13T06:46:30.512Z,13.50
2022-09-13T06:49:01.593Z,13.50
2022-09-13T06:51:31.338Z,13.60
2022-09-13T06:53:59.985Z,13.60
2022-09-13T06:56:32.858Z,13.80
2022-09-13T06:59:05.254Z,13.90
2022-09-13T07:01:36.309Z,14.00
2022-09-13T07:04:07.398Z,14.00
2022-09-13T07:06:36.380Z,14.10
2022-09-13T07:09:04.822Z,14.20
2022-09-13T07:11:34.470Z,14.30
2022-09-13T07:14:01.677Z,14.40
2022-09-13T07:16:31.127Z,14.50
2022-09-13T07:18:59.831Z,14.60
2022-09-13T07:21:27.501Z,14.70
2022-09-13T07:23:56.319Z,14.80
2022-09-13T07:26:23.747Z,15.00
2022-09-13T07:28:52.795Z,15.10
2022-09-13T07:31:24.642Z,15.20
2022-09-13T07:33:56.524Z,15.20
2022-09-13T07:36:24.287Z,15.30
2022-09-13T07:38:51.647Z,15.40
2022-09-13T07:41:21.244Z,15.60
2022-09-13T07:43:48.974Z,15.70
2022-09-13T07:46:21.362Z,15.80
2022-09-13T07:48:49.501Z,15.90
2022-09-13T07:51:21.514Z,16.00
2022-09-13T07:53:52.565Z,16.10
2022-09-13T07:56:25.184Z,16.30
2022-09-13T07:58:54.905Z,16.40
2022-09-13T08:01:24.157Z,16.50
2022-09-13T08:03:52.833Z,16.60
2022-09-13T08:06:20.250Z,16.80
2022-09-13T08:08:47.518Z,16.90
2022-09-13T08:11:18.215Z,17.00
2022-09-13T08:13:46.638Z,17.20
2022-09-13T08:16:13.953Z,17.30
2022-09-13T08:18:48.209Z,17.50
2022-09-13T08:21:16.637Z,17.60
2022-09-13T08:23:43.967Z,17.70
2022-09-13T08:26:11.377Z,17.80
2022-09-13T08:28:40.350Z,18.00
2022-09-13T08:31:08.944Z,18.10
2022-09-13T08:33:37.506Z,18.20
2022-09-13T08:36:05.295Z,18.30
2022-09-13T08:38:32.652Z,18.30
2022-09-13T08:41:06.010Z,18.40
2022-09-13T08:43:35.577Z,18.40
2022-09-13T08:46:06.981Z,18.50
2022-09-13T08:48:35.957Z,18.60
2022-09-13T08:51:09.232Z,18.70
2022-09-13T08:53:45.020Z,18.80
2022-09-13T08:56:14.120Z,18.80
2022-09-13T08:59:02.501Z,18.90
2022-09-13T09:01:36.177Z,19.00
2022-09-13T09:04:26.759Z,19.10
2022-09-13T09:07:05.750Z,19.20
2022-09-13T09:09:43.158Z,19.30
2022-09-13T09:12:32.389Z,19.40
2022-09-13T09:15:21.744Z,19.50
2022-09-13T09:17:58.509Z,19.60
2022-09-13T09:20:34.722Z,19.60
2022-09-13T09:23:05.542Z,19.70
2022-09-13T09:25:33.017Z,19.80
2022-09-13T09:28:00.277Z,20.00
2022-09-13T09:30:38.150Z,20.10
2022-09-13T09:33:17.865Z,20.20
2022-09-13T09:35:47.970Z,20.20
2022-09-13T09:38:43.207Z,20.30
2022-09-13T09:41:14.437Z,20.40
2022-09-13T09:43:44.390Z,20.50
2022-09-13T09:46:11.721Z,20.50
2022-09-13T09:48:48.817Z,20.60
2022-09-13T09:51:16.606Z,20.70
2022-09-13T09:53:45.832Z,20.70
2022-09-13T09:56:26.936Z,20.80
2022-09-13T09:58:55.855Z,20.90
2022-09-13T10:01:24.244Z,21.00
2022-09-13T10:04:11.447Z,21.10
2022-09-13T10:06:40.347Z,21.20
2022-09-13T10:09:13.739Z,21.40
2022-09-13T10:11:42.912Z,21.50
2022-09-13T10:14:29.143Z,21.50
2022-09-13T10:17:22.083Z,21.60
2022-09-13T10:19:59.273Z,21.70
2022-09-13T10:22:27.176Z,21.70
2022-09-13T10:24:54.955Z,21.80
2022-09-13T10:27:23.726Z,21.80
2022-09-13T10:29:52.498Z,21.90
2022-09-13T10:32:19.809Z,22.10
2022-09-13T10:34:47.034Z,22.20
2022-09-13T10:37:30.922Z,22.30
2022-09-13T10:40:18.998Z,22.30
2022-09-13T10:42:59.641Z,22.40
2022-09-13T10:45:28.165Z,22.50
2022-09-13T10:47:59.005Z,22.60
2022-09-13T10:50:27.066Z,22.70
2022-09-13T10:52:55.381Z,22.70
2022-09-13T10:55:22.609Z,22.70
2022-09-13T10:57:50.774Z,22.80
2022-09-13T11:00:22.856Z,22.80
2022-09-13T11:03:14.164Z,22.90
2022-09-13T11:05:49.434Z,22.90
2022-09-13T11:08:37.984Z,22.90
2022-09-13T11:11:16.853Z,23.00
2022-09-13T11:13:47.217Z,23.10
2022-09-13T11:16:47.099Z,23.30
2022-09-13T11:19:52.092Z,23.50
2022-09-13T11:22:30.445Z,23.50
2022-09-13T11:25:04.318Z,23.40
2022-09-13T11:27:54.342Z,23.40
2022-09-13T11:30:25.344Z,23.20
2022-09-13T11:33:00.910Z,23.10
2022-09-13T11:35:36.617Z,23.00
2022-09-13T11:38:19.983Z,23.00
2022-09-13T11:40:58.383Z,22.90
2022-09-13T11:43:59.640Z,22.90
2022-09-13T11:46:43.709Z,22.80
2022-09-13T11:49:10.801Z,22.80
2022-09-13T11:51:44.018Z,22.70
2022-09-13T11:54:13.962Z,22.70
2022-09-13T11:56:43.678Z,22.70
2022-09-13T11:59:27.526Z,22.60
2022-09-13T12:01:57.261Z,22.60
2022-09-13T12:04:36.596Z,22.60
2022-09-13T12:07:11.416Z,22.50
2022-09-13T12:09:40.732Z,22.60
2022-09-13T12:12:10.456Z,22.60
2022-09-13T12:14:51.960Z,22.60
2022-09-13T12:17:39.383Z,22.70
2022-09-13T12:20:15.572Z,22.80
2022-09-13T12:22:42.797Z,22.90
2022-09-13T12:25:20.217Z,23.00
2022-09-13T12:27:57.326Z,23.20
2022-09-13T12:30:28.568Z,23.40
2022-09-13T12:32:58.982Z,23.60
2022-09-13T12:35:30.559Z,23.80
2022-09-13T12:38:03.706Z,23.90
2022-09-13T12:40:35.422Z,24.00
2022-09-13T12:43:26.659Z,24.10
2022-09-13T12:46:09.678Z,24.10
2022-09-13T12:48:46.438Z,24.10
2022-09-13T12:51:14.842Z,24.20
2022-09-13T12:53:55.834Z,24.20
2022-09-13T12:56:33.142Z,24.30
2022-09-13T12:59:03.641Z,24.30
2022-09-13T13:01:31.755Z,24.20
2022-09-13T13:04:03.265Z,24.20
2022-09-13T13:06:51.410Z,24.30
2022-09-13T13:09:43.674Z,24.50
2022-09-13T13:12:31.252Z,24.60
2022-09-13T13:15:00.491Z,24.60
2022-09-13T13:17:44.040Z,24.70
2022-09-13T13:20:48.931Z,24.60
2022-09-13T13:23:35.295Z,24.70
2022-09-13T13:26:13.351Z,24.70
2022-09-13T13:28:43.856Z,24.60
2022-09-13T13:31:35.352Z,24.60
2022-09-13T13:34:14.537Z,24.50
2022-09-13T13:36:41.748Z,24.50
2022-09-13T13:39:24.477Z,24.50
2022-09-13T13:41:58.133Z,24.50
2022-09-13T13:44:25.473Z,24.60
2022-09-13T13:47:13.654Z,24.60
2022-09-13T13:49:40.857Z,24.50
2022-09-13T13:52:11.715Z,24.50
2022-09-13T13:54:39.086Z,24.60
2022-09-13T13:57:30.940Z,24.50
2022-09-13T14:00:17.789Z,24.40
2022-09-13T14:02:53.301Z,24.50
2022-09-13T14:05:31.506Z,24.50
2022-09-13T14:08:16.924Z,24.40
2022-09-13T14:10:44.094Z,24.50
2022-09-13T14:13:41.810Z,24.40
2022-09-13T14:16:12.211Z,24.20
2022-09-13T14:18:39.432Z,24.10
2022-09-13T14:21:36.080Z,24.00
2022-09-13T14:24:19.328Z,23.90
2022-09-13T14:26:51.034Z,23.80
2022-09-13T14:29:22.400Z,23.70
2022-09-13T14:31:50.790Z,23.60
2022-09-13T14:34:29.281Z,23.50
2022-09-13T14:37:04.547Z,23.50
2022-09-13T14:39:31.871Z,23.40
2022-09-13T14:42:19.334Z,23.30
2022-09-13T14:44:47.018Z,23.30
2022-09-13T14:47:17.068Z,23.20
2022-09-13T14:49:49.136Z,23.20
2022-09-13T14:52:30.119Z,23.20
2022-09-13T14:54:59.702Z,23.20
2022-09-13T14:57:29.193Z,23.20
2022-09-13T14:59:58.638Z,23.20
2022-09-13T15:02:27.889Z,23.20
2022-09-13T15:04:56.750Z,23.30
2022-09-13T15:07:28.368Z,23.20
2022-09-13T15:09:57.149Z,23.20
2022-09-13T15:12:28.245Z,23.10
2022-09-13T15:15:20.076Z,23.10
2022-09-13T15:17:57.412Z,23.00
2022-09-13T15:20:25.929Z,22.90
2022-09-13T15:22:53.835Z,22.70
2022-09-13T15:25:28.348Z,22.70
2022-09-13T15:27:56.538Z,22.60
2022-09-13T15:30:31.752Z,22.50
2022-09-13T15:33:11.499Z,22.50
2022-09-13T15:35:43.257Z,22.40
2022-09-13T15:38:32.594Z,22.40
2022-09-13T15:41:17.931Z,22.40
2022-09-13T15:43:48.002Z,22.40
2022-09-13T15:46:15.779Z,22.40
2022-09-13T15:48:50.359Z,22.30
2022-09-13T15:51:18.309Z,22.20
2022-09-13T15:53:46.101Z,22.20
2022-09-13T15:56:17.694Z,22.10
2022-09-13T15:58:44.923Z,22.00
2022-09-13T16:01:15.409Z,21.90
2022-09-13T16:03:42.718Z,21.80
2022-09-13T16:06:10.017Z,21.70
2022-09-13T16:08:37.348Z,21.60
2022-09-13T16:11:05.346Z,21.50
2022-09-13T16:13:32.793Z,21.50
2022-09-13T16:16:00.080Z,21.40
2022-09-13T16:18:27.429Z,21.40
2022-09-13T16:20:54.895Z,21.30
2022-09-13T16:23:22.098Z,21.20
2022-09-13T16:25:51.619Z,21.20
2022-09-13T16:28:21.197Z,21.10
2022-09-13T16:30:48.518Z,21.00
2022-09-13T16:33:15.730Z,21.00
2022-09-13T16:35:42.954Z,20.90
2022-09-13T16:38:10.591Z,20.90
2022-09-13T16:40:41.792Z,20.80
2022-09-13T16:43:09.393Z,20.70
2022-09-13T16:45:40.814Z,20.70
2022-09-13T16:48:08.491Z,20.70
2022-09-13T16:50:36.034Z,20.70
2022-09-13T16:53:03.295Z,20.60
2022-09-13T16:55:30.466Z,20.70
2022-09-13T16:57:57.685Z,20.60
2022-09-13T17:00:28.454Z,20.50
2022-09-13T17:02:56.476Z,20.40
2022-09-13T17:05:24.063Z,20.40
2022-09-13T17:07:51.763Z,20.30
2022-09-13T17:10:19.500Z,20.20
2022-09-13T17:12:47.044Z,20.20
2022-09-13T17:15:14.282Z,20.10
2022-09-13T17:17:41.501Z,20.10
2022-09-13T17:20:10.454Z,20.00
2022-09-13T17:22:37.711Z,20.00
2022-09-13T17:25:07.635Z,19.90
2022-09-13T17:27:35.074Z,19.90
2022-09-13T17:30:04.897Z,19.80
2022-09-13T17:32:32.189Z,19.80
2022-09-13T17:34:59.400Z,19.80
2022-09-13T17:37:26.895Z,19.70
2022-09-13T17:39:54.201Z,19.70
2022-09-13T17:42:23.580Z,19.60
2022-09-13T17:44:51.089Z,19.60
2022-09-13T17:47:18.278Z,19.50
2022-09-13T17:49:47.054Z,19.50
2022-09-13T17:52:14.265Z,19.40
2022-09-13T17:54:41.501Z,19.30
2022-09-13T17:57:11.736Z,19.20
2022-09-13T17:59:39.054Z,19.20
2022-09-13T18:02:06.445Z,19.20
2022-09-13T18:04:33.779Z,19.10
2022-09-13T18:07:00.981Z,19.10
2022-09-13T18:09:28.264Z,19.00
2022-09-13T18:11:55.715Z,19.00
2022-09-13T18:14:24.257Z,19.00
2022-09-13T18:16:55.577Z,18.90
2022-09-13T18:19:39.172Z,18.90
2022-09-13T18:22:10.505Z,18.90
2022-09-13T18:24:37.719Z,18.80
2022-09-13T18:27:04.961Z,18.80
2022-09-13T18:29:32.910Z,18.80
2022-09-13T18:32:00.169Z,18.70
2022-09-13T18:34:27.905Z,18.70
2022-09-13T18:36:56.025Z,18.60
2022-09-13T18:39:23.329Z,18.60
2022-09-13T18:41:50.668Z,18.60
2022-09-13T18:44:18.273Z,18.50
2022-09-13T18:46:47.538Z,18.50
2022-09-13T18:49:15.236Z,18.50
2022-09-13T18:51:43.617Z,18.50
2022-09-13T18:54:16.205Z,18.50
2022-09-13T18:56:44.778Z,18.40
2022-09-13T18:59:12.152Z,18.40
2022-09-13T19:01:41.110Z,18.40
2022-09-13T19:04:13.935Z,18.30
2022-09-13T19:06:42.588Z,18.30
2022-09-13T19:09:10.138Z,18.30
2022-09-13T19:11:48.898Z,18.30
2022-09-13T19:14:28.515Z,18.20
2022-09-13T19:17:00.457Z,18.20
2022-09-13T19:19:27.810Z,18.20
2022-09-13T19:21:55.057Z,18.20
2022-09-13T19:24:22.543Z,18.20
2022-09-13T19:26:51.195Z,18.10
2022-09-13T19:29:20.697Z,18.10
2022-09-13T19:31:48.662Z,18.00
2022-09-13T19:34:17.458Z,18.10
2022-09-13T19:36:45.029Z,18.00
2022-09-13T19:39:12.591Z,18.00
2022-09-13T19:41:40.198Z,18.00
2022-09-13T19:44:08.418Z,18.00
2022-09-13T19:46:37.877Z,17.90
2022-09-13T19:49:05.529Z,17.90
2022-09-13T19:51:37.083Z,17.90
2022-09-13T19:54:05.157Z,17.90
2022-09-13T19:56:39.201Z,17.90
2022-09-13T19:59:07.513Z,17.90
2022-09-13T20:01:36.931Z,17.90
2022-09-13T20:04:06.993Z,17.90
2022-09-13T20:06:39.612Z,17.90
2022-09-13T20:09:07.222Z,17.80
2022-09-13T20:11:37.682Z,17.80
2022-09-13T20:14:08.697Z,17.80
2022-09-13T20:16:36.843Z,17.80
2022-09-13T20:19:18.302Z,17.80
2022-09-13T20:21:51.282Z,17.70
2022-09-13T20:24:18.869Z,17.70
2022-09-13T20:26:46.309Z,17.70
2022-09-13T20:29:14.930Z,17.70
2022-09-13T20:31:42.237Z,17.60
2022-09-13T20:34:12.306Z,17.60
2022-09-13T20:36:41.104Z,17.60
2022-09-13T20:39:08.906Z,17.50
2022-09-13T20:41:36.102Z,17.50
2022-09-13T20:44:03.467Z,17.50
2022-09-13T20:46:33.444Z,17.40
2022-09-13T20:49:01.371Z,17.40
2022-09-13T20:51:32.645Z,17.40
2022-09-13T20:54:01.711Z,17.40
2022-09-13T20:56:30.287Z,17.30
2022-09-13T20:59:00.065Z,17.30
2022-09-13T21:01:28.493Z,17.20
2022-09-13T21:03:56.038Z,17.20
2022-09-13T21:06:24.557Z,17.10
2022-09-13T21:08:52.130Z,17.10
2022-09-13T21:11:24.421Z,17.10
2022-09-13T21:13:58.284Z,17.10
2022-09-13T21:16:27.339Z,17.00
2022-09-13T21:18:54.806Z,17.00
2022-09-13T21:21:24.094Z,17.00
2022-09-13T21:23:51.360Z,17.00
2022-09-13T21:26:20.358Z,16.90
2022-09-13T21:28:47.773Z,16.90
2022-09-13T21:31:21.745Z,16.90
2022-09-13T21:34:00.176Z,16.90
2022-09-13T21:36:27.705Z,16.80
2022-09-13T21:38:55.853Z,16.80
2022-09-13T21:41:24.081Z,16.90
2022-09-13T21:43:51.433Z,16.90
2022-09-13T21:46:20.379Z,16.90
2022-09-13T21:48:52.503Z,16.90
2022-09-13T21:51:23.437Z,16.90
2022-09-13T21:53:57.553Z,16.80
2022-09-13T21:56:29.780Z,16.80
2022-09-13T21:59:05.801Z,16.80
2022-09-13T22:01:39.001Z,16.80
2022-09-13T22:04:06.624Z,16.80
2022-09-13T22:06:35.133Z,16.80
2022-09-13T22:09:06.591Z,16.80
2022-09-13T22:11:36.234Z,16.80
2022-09-13T22:14:03.805Z,16.80
2022-09-13T22:16:32.716Z,16.80
2022-09-13T22:19:14.713Z,16.80
2022-09-13T22:21:43.750Z,16.90
2022-09-13T22:24:14.708Z,16.90
2022-09-13T22:26:42.071Z,16.80
2022-09-13T22:29:09.815Z,16.80
2022-09-13T22:31:39.397Z,16.80
2022-09-13T22:34:07.302Z,16.80
2022-09-13T22:36:34.579Z,16.70
2022-09-13T22:39:01.803Z,16.70
2022-09-13T22:41:30.922Z,16.70
2022-09-13T22:44:01.807Z,16.70
2022-09-13T22:46:33.979Z,16.70
2022-09-13T22:49:01.431Z,16.70
2022-09-13T22:51:28.889Z,16.70
2022-09-13T22:53:56.212Z,16.70
2022-09-13T22:56:31.008Z,16.70
2022-09-13T22:59:03.767Z,16.80
2022-09-13T23:01:31.748Z,16.70
2022-09-13T23:04:00.138Z,16.80
2022-09-13T23:06:28.294Z,16.80
2022-09-13T23:08:57.898Z,16.70
2022-09-13T23:11:27.350Z,16.80
2022-09-13T23:13:55.456Z,16.80
2022-09-13T23:16:27.304Z,16.80
2022-09-13T23:18:54.932Z,16.80
2022-09-13T23:21:23.533Z,16.80
2022-09-13T23:23:50.757Z,16.80
2022-09-13T23:26:19.034Z,16.80
2022-09-13T23:28:47.265Z,16.80
2022-09-13T23:31:16.134Z,16.80
2022-09-13T23:33:45.857Z,16.70
2022-09-13T23:36:14.250Z,16.70
2022-09-13T23:38:46.339Z,16.70
2022-09-13T23:41:14.353Z,16.80
2022-09-13T23:43:41.720Z,16.80
2022-09-13T23:46:09.241Z,16.80
2022-09-13T23:48:36.573Z,16.80
2022-09-13T23:51:08.292Z,16.80
2022-09-13T23:53:36.367Z,16.80
2022-09-13T23:56:04.470Z,16.80
2022-09-13T23:58:32.041Z,16.80
